sensor_id;sensor_type;location;lat;lon;timestamp;temperature;humidity
6098;DHT22;3077;50.922;6.584;2023-12-04T00:00:25;1.00;1.00
6098;DHT22;3077;50.922;6.584;2023-12-04T00:02:51;1.00;1.00
6098;DHT22;3077;50.922;6.584;2023-12-04T00:05:17;1.00;1.00
6098;DHT22;3077;50.922;6.584;2023-12-04T00:07:42;1.00;99.90
6098;DHT22;3077;50.922;6.584;2023-12-04T00:10:08;1.10;1.00
6098;DHT22;3077;50.922;6.584;2023-12-04T00:12:34;1.10;1.00
6098;DHT22;3077;50.922;6.584;2023-12-04T00:14:59;1.10;99.90
6098;DHT22;3077;50.922;6.584;2023-12-04T00:17:25;1.00;99.90
6098;DHT22;3077;50.922;6.584;2023-12-04T00:19:51;0.90;99.90
6098;DHT22;3077;50.922;6.584;2023-12-04T00:22:16;0.90;99.90
6098;DHT22;3077;50.922;6.584;2023-12-04T00:24:42;0.90;99.90
6098;DHT22;3077;50.922;6.584;2023-12-04T00:27:07;0.80;1.00
6098;DHT22;3077;50.922;6.584;2023-12-04T00:29:33;0.80;1.00
6098;DHT22;3077;50.922;6.584;2023-12-04T00:31:59;0.80;99.90
6098;DHT22;3077;50.922;6.584;2023-12-04T00:34:24;0.80;99.90
6098;DHT22;3077;50.922;6.584;2023-12-04T00:36:50;0.80;99.90
6098;DHT22;3077;50.922;6.584;2023-12-04T00:39:15;0.70;1.00
6098;DHT22;3077;50.922;6.584;2023-12-04T00:41:41;0.80;1.00
6098;DHT22;3077;50.922;6.584;2023-12-04T00:44:07;0.80;99.90
6098;DHT22;3077;50.922;6.584;2023-12-04T00:46:32;0.80;99.90
6098;DHT22;3077;50.922;6.584;2023-12-04T00:48:58;0.80;99.90
6098;DHT22;3077;50.922;6.584;2023-12-04T00:51:23;0.80;99.90
6098;DHT22;3077;50.922;6.584;2023-12-04T00:53:49;0.80;99.90
6098;DHT22;3077;50.922;6.584;2023-12-04T00:56:14;0.80;99.90
6098;DHT22;3077;50.922;6.584;2023-12-04T00:58:40;0.80;6.80
6098;DHT22;3077;50.922;6.584;2023-12-04T01:01:06;0.80;53.00
6098;DHT22;3077;50.922;6.584;2023-12-04T01:03:31;0.80;60.60
6098;DHT22;3077;50.922;6.584;2023-12-04T01:05:59;0.80;1.00
6098;DHT22;3077;50.922;6.584;2023-12-04T01:08:24;0.80;1.00
6098;DHT22;3077;50.922;6.584;2023-12-04T01:10:50;0.90;1.00
6098;DHT22;3077;50.922;6.584;2023-12-04T01:13:15;0.90;1.00
6098;DHT22;3077;50.922;6.584;2023-12-04T01:15:41;0.90;99.90
6098;DHT22;3077;50.922;6.584;2023-12-04T01:18:08;0.90;99.90
6098;DHT22;3077;50.922;6.584;2023-12-04T01:20:34;0.90;99.90
6098;DHT22;3077;50.922;6.584;2023-12-04T01:22:59;0.90;99.90
6098;DHT22;3077;50.922;6.584;2023-12-04T01:25:25;1.00;1.00
6098;DHT22;3077;50.922;6.584;2023-12-04T01:27:51;1.10;99.90
6098;DHT22;3077;50.922;6.584;2023-12-04T01:30:16;1.00;1.00
6098;DHT22;3077;50.922;6.584;2023-12-04T01:32:42;1.00;99.90
6098;DHT22;3077;50.922;6.584;2023-12-04T01:35:08;1.00;99.90
6098;DHT22;3077;50.922;6.584;2023-12-04T01:37:33;1.00;56.80
6098;DHT22;3077;50.922;6.584;2023-12-04T01:39:59;1.00;4.10
6098;DHT22;3077;50.922;6.584;2023-12-04T01:42:24;1.10;1.00
6098;DHT22;3077;50.922;6.584;2023-12-04T01:44:50;1.00;1.00
6098;DHT22;3077;50.922;6.584;2023-12-04T01:47:17;1.10;3.90
6098;DHT22;3077;50.922;6.584;2023-12-04T01:49:43;1.10;12.50
6098;DHT22;3077;50.922;6.584;2023-12-04T01:52:09;1.10;1.00
6098;DHT22;3077;50.922;6.584;2023-12-04T01:54:35;1.10;1.00
6098;DHT22;3077;50.922;6.584;2023-12-04T01:57:02;1.20;99.90
6098;DHT22;3077;50.922;6.584;2023-12-04T01:59:28;1.10;1.00
6098;DHT22;3077;50.922;6.584;2023-12-04T02:01:53;1.10;1.00
6098;DHT22;3077;50.922;6.584;2023-12-04T02:04:20;1.10;99.90
6098;DHT22;3077;50.922;6.584;2023-12-04T02:06:46;1.10;99.90
6098;DHT22;3077;50.922;6.584;2023-12-04T02:09:11;1.00;99.90
6098;DHT22;3077;50.922;6.584;2023-12-04T02:11:38;1.00;1.00
6098;DHT22;3077;50.922;6.584;2023-12-04T02:14:04;0.90;99.90
6098;DHT22;3077;50.922;6.584;2023-12-04T02:16:31;1.00;1.00
6098;DHT22;3077;50.922;6.584;2023-12-04T02:19:00;1.00;99.90
6098;DHT22;3077;50.922;6.584;2023-12-04T02:21:25;1.00;99.90
6098;DHT22;3077;50.922;6.584;2023-12-04T02:23:52;1.00;1.00
6098;DHT22;3077;50.922;6.584;2023-12-04T02:26:23;1.10;1.00
6098;DHT22;3077;50.922;6.584;2023-12-04T02:28:54;1.00;1.00
6098;DHT22;3077;50.922;6.584;2023-12-04T02:31:21;1.10;99.90
6098;DHT22;3077;50.922;6.584;2023-12-04T02:33:52;1.10;99.90
6098;DHT22;3077;50.922;6.584;2023-12-04T02:36:19;1.00;99.90
6098;DHT22;3077;50.922;6.584;2023-12-04T02:38:46;1.00;99.90
6098;DHT22;3077;50.922;6.584;2023-12-04T02:41:11;1.00;99.90
6098;DHT22;3077;50.922;6.584;2023-12-04T02:43:37;1.00;99.90
6098;DHT22;3077;50.922;6.584;2023-12-04T02:46:03;1.00;99.90
6098;DHT22;3077;50.922;6.584;2023-12-04T02:48:28;1.00;99.90
6098;DHT22;3077;50.922;6.584;2023-12-04T02:50:54;1.00;99.90
6098;DHT22;3077;50.922;6.584;2023-12-04T02:53:19;1.00;99.90
6098;DHT22;3077;50.922;6.584;2023-12-04T02:55:45;1.00;99.90
6098;DHT22;3077;50.922;6.584;2023-12-04T02:58:11;1.00;99.90
6098;DHT22;3077;50.922;6.584;2023-12-04T03:00:36;1.00;99.90
6098;DHT22;3077;50.922;6.584;2023-12-04T03:03:02;1.00;99.90
6098;DHT22;3077;50.922;6.584;2023-12-04T03:05:28;1.00;1.00
6098;DHT22;3077;50.922;6.584;2023-12-04T03:07:53;0.90;99.90
6098;DHT22;3077;50.922;6.584;2023-12-04T03:10:19;0.90;1.00
6098;DHT22;3077;50.922;6.584;2023-12-04T03:12:44;0.90;4.00
6098;DHT22;3077;50.922;6.584;2023-12-04T03:15:10;0.90;75.20
6098;DHT22;3077;50.922;6.584;2023-12-04T03:17:37;0.90;1.00
6098;DHT22;3077;50.922;6.584;2023-12-04T03:20:03;0.90;1.00
6098;DHT22;3077;50.922;6.584;2023-12-04T03:22:30;0.90;1.00
6098;DHT22;3077;50.922;6.584;2023-12-04T03:24:55;0.90;1.00
6098;DHT22;3077;50.922;6.584;2023-12-04T03:27:21;1.00;1.00
6098;DHT22;3077;50.922;6.584;2023-12-04T03:29:46;0.90;1.00
6098;DHT22;3077;50.922;6.584;2023-12-04T03:32:12;1.00;1.00
6098;DHT22;3077;50.922;6.584;2023-12-04T03:34:37;1.00;1.00
6098;DHT22;3077;50.922;6.584;2023-12-04T03:37:03;1.00;99.90
6098;DHT22;3077;50.922;6.584;2023-12-04T03:39:29;1.00;99.90
6098;DHT22;3077;50.922;6.584;2023-12-04T03:41:54;1.00;99.90
6098;DHT22;3077;50.922;6.584;2023-12-04T03:44:20;1.00;99.90
6098;DHT22;3077;50.922;6.584;2023-12-04T03:46:45;1.00;1.00
6098;DHT22;3077;50.922;6.584;2023-12-04T03:49:11;1.00;1.00
6098;DHT22;3077;50.922;6.584;2023-12-04T03:51:37;0.90;1.00
6098;DHT22;3077;50.922;6.584;2023-12-04T03:54:02;0.90;1.00
6098;DHT22;3077;50.922;6.584;2023-12-04T03:56:28;1.00;1.00
6098;DHT22;3077;50.922;6.584;2023-12-04T03:58:53;0.90;1.00
6098;DHT22;3077;50.922;6.584;2023-12-04T04:01:19;1.00;1.00
6098;DHT22;3077;50.922;6.584;2023-12-04T04:03:44;0.90;99.90
6098;DHT22;3077;50.922;6.584;2023-12-04T04:06:11;0.90;99.90
6098;DHT22;3077;50.922;6.584;2023-12-04T04:08:37;0.90;99.90
6098;DHT22;3077;50.922;6.584;2023-12-04T04:11:02;0.90;1.00
6098;DHT22;3077;50.922;6.584;2023-12-04T04:13:28;0.90;1.00
6098;DHT22;3077;50.922;6.584;2023-12-04T04:15:53;0.90;1.00
6098;DHT22;3077;50.922;6.584;2023-12-04T04:18:19;0.90;1.00
6098;DHT22;3077;50.922;6.584;2023-12-04T04:20:45;0.90;99.90
6098;DHT22;3077;50.922;6.584;2023-12-04T04:23:10;0.90;1.00
6098;DHT22;3077;50.922;6.584;2023-12-04T04:25:36;0.90;99.90
6098;DHT22;3077;50.922;6.584;2023-12-04T04:28:01;0.90;99.90
6098;DHT22;3077;50.922;6.584;2023-12-04T04:30:27;1.00;99.90
6098;DHT22;3077;50.922;6.584;2023-12-04T04:32:52;0.80;99.90
6098;DHT22;3077;50.922;6.584;2023-12-04T04:35:18;0.80;99.90
6098;DHT22;3077;50.922;6.584;2023-12-04T04:37:44;0.60;1.00
6098;DHT22;3077;50.922;6.584;2023-12-04T04:40:10;0.70;99.90
6098;DHT22;3077;50.922;6.584;2023-12-04T04:42:35;0.70;99.90
6098;DHT22;3077;50.922;6.584;2023-12-04T04:45:01;0.70;99.90
6098;DHT22;3077;50.922;6.584;2023-12-04T04:47:27;0.70;99.90
6098;DHT22;3077;50.922;6.584;2023-12-04T04:49:52;0.60;99.90
6098;DHT22;3077;50.922;6.584;2023-12-04T04:52:18;0.60;99.90
6098;DHT22;3077;50.922;6.584;2023-12-04T04:54:44;0.60;99.90
6098;DHT22;3077;50.922;6.584;2023-12-04T04:57:09;0.60;99.90
6098;DHT22;3077;50.922;6.584;2023-12-04T04:59:35;0.60;99.90
6098;DHT22;3077;50.922;6.584;2023-12-04T05:02:00;0.70;99.90
6098;DHT22;3077;50.922;6.584;2023-12-04T05:04:26;0.70;99.90
6098;DHT22;3077;50.922;6.584;2023-12-04T05:06:52;0.70;99.90
6098;DHT22;3077;50.922;6.584;2023-12-04T05:09:17;0.80;99.90
6098;DHT22;3077;50.922;6.584;2023-12-04T05:11:43;0.80;99.90
6098;DHT22;3077;50.922;6.584;2023-12-04T05:14:08;0.90;99.90
6098;DHT22;3077;50.922;6.584;2023-12-04T05:16:34;0.40;99.90
6098;DHT22;3077;50.922;6.584;2023-12-04T05:18:59;0.80;99.90
6098;DHT22;3077;50.922;6.584;2023-12-04T05:21:25;0.80;99.90
6098;DHT22;3077;50.922;6.584;2023-12-04T05:23:50;0.90;99.90
6098;DHT22;3077;50.922;6.584;2023-12-04T05:26:16;0.90;99.90
6098;DHT22;3077;50.922;6.584;2023-12-04T05:28:42;0.90;99.90
6098;DHT22;3077;50.922;6.584;2023-12-04T05:31:07;0.90;99.90
6098;DHT22;3077;50.922;6.584;2023-12-04T05:33:33;0.90;99.90
6098;DHT22;3077;50.922;6.584;2023-12-04T05:36:00;0.90;99.90
6098;DHT22;3077;50.922;6.584;2023-12-04T05:38:25;0.80;99.90
6098;DHT22;3077;50.922;6.584;2023-12-04T05:40:51;0.80;99.90
6098;DHT22;3077;50.922;6.584;2023-12-04T05:43:16;0.80;99.90
6098;DHT22;3077;50.922;6.584;2023-12-04T05:45:42;0.90;78.60
6098;DHT22;3077;50.922;6.584;2023-12-04T05:48:07;0.90;25.70
6098;DHT22;3077;50.922;6.584;2023-12-04T05:50:33;1.00;34.90
6098;DHT22;3077;50.922;6.584;2023-12-04T05:52:59;1.00;48.50
6098;DHT22;3077;50.922;6.584;2023-12-04T05:55:24;1.10;1.00
6098;DHT22;3077;50.922;6.584;2023-12-04T05:57:50;1.10;99.90
6098;DHT22;3077;50.922;6.584;2023-12-04T06:00:16;1.10;1.00
6098;DHT22;3077;50.922;6.584;2023-12-04T06:02:42;1.20;1.00
6098;DHT22;3077;50.922;6.584;2023-12-04T06:05:08;1.20;1.00
6098;DHT22;3077;50.922;6.584;2023-12-04T06:07:34;1.20;1.00
6098;DHT22;3077;50.922;6.584;2023-12-04T06:10:00;1.20;1.00
6098;DHT22;3077;50.922;6.584;2023-12-04T06:12:26;1.20;1.00
6098;DHT22;3077;50.922;6.584;2023-12-04T06:14:51;1.30;99.90
6098;DHT22;3077;50.922;6.584;2023-12-04T06:17:17;1.30;99.90
6098;DHT22;3077;50.922;6.584;2023-12-04T06:19:42;1.30;99.90
6098;DHT22;3077;50.922;6.584;2023-12-04T06:22:08;1.30;99.90
6098;DHT22;3077;50.922;6.584;2023-12-04T06:24:34;1.20;99.90
6098;DHT22;3077;50.922;6.584;2023-12-04T06:27:00;1.20;99.90
6098;DHT22;3077;50.922;6.584;2023-12-04T06:29:26;1.20;99.90
6098;DHT22;3077;50.922;6.584;2023-12-04T06:31:52;1.10;99.90
6098;DHT22;3077;50.922;6.584;2023-12-04T06:34:18;1.20;99.90
6098;DHT22;3077;50.922;6.584;2023-12-04T06:36:44;1.00;99.90
6098;DHT22;3077;50.922;6.584;2023-12-04T06:39:11;1.10;99.90
6098;DHT22;3077;50.922;6.584;2023-12-04T06:41:38;1.00;1.00
6098;DHT22;3077;50.922;6.584;2023-12-04T06:44:04;1.10;1.00
6098;DHT22;3077;50.922;6.584;2023-12-04T06:46:31;1.00;99.90
6098;DHT22;3077;50.922;6.584;2023-12-04T06:48:59;1.00;99.90
6098;DHT22;3077;50.922;6.584;2023-12-04T06:51:25;1.00;99.90
6098;DHT22;3077;50.922;6.584;2023-12-04T06:53:51;1.00;1.00
6098;DHT22;3077;50.922;6.584;2023-12-04T06:56:16;1.00;1.00
6098;DHT22;3077;50.922;6.584;2023-12-04T06:58:42;0.90;1.00
6098;DHT22;3077;50.922;6.584;2023-12-04T07:01:07;1.00;1.00
6098;DHT22;3077;50.922;6.584;2023-12-04T07:03:33;1.00;1.00
6098;DHT22;3077;50.922;6.584;2023-12-04T07:05:58;0.90;1.00
6098;DHT22;3077;50.922;6.584;2023-12-04T07:08:25;0.90;43.60
6098;DHT22;3077;50.922;6.584;2023-12-04T07:10:50;0.90;99.90
6098;DHT22;3077;50.922;6.584;2023-12-04T07:13:16;0.90;99.90
6098;DHT22;3077;50.922;6.584;2023-12-04T07:15:41;0.90;99.90
6098;DHT22;3077;50.922;6.584;2023-12-04T07:18:07;0.90;45.10
6098;DHT22;3077;50.922;6.584;2023-12-04T07:20:33;0.90;99.90
6098;DHT22;3077;50.922;6.584;2023-12-04T07:22:58;1.00;99.90
6098;DHT22;3077;50.922;6.584;2023-12-04T07:25:25;1.00;99.90
6098;DHT22;3077;50.922;6.584;2023-12-04T07:27:51;1.00;1.00
6098;DHT22;3077;50.922;6.584;2023-12-04T07:30:16;0.90;99.90
6098;DHT22;3077;50.922;6.584;2023-12-04T07:32:42;1.00;99.90
6098;DHT22;3077;50.922;6.584;2023-12-04T07:35:08;1.00;21.40
6098;DHT22;3077;50.922;6.584;2023-12-04T07:37:34;0.90;77.40
6098;DHT22;3077;50.922;6.584;2023-12-04T07:39:59;1.00;99.90
6098;DHT22;3077;50.922;6.584;2023-12-04T07:42:25;1.00;99.90
6098;DHT22;3077;50.922;6.584;2023-12-04T07:44:51;1.00;99.90
6098;DHT22;3077;50.922;6.584;2023-12-04T07:47:16;1.00;99.90
6098;DHT22;3077;50.922;6.584;2023-12-04T07:49:44;1.00;99.90
6098;DHT22;3077;50.922;6.584;2023-12-04T07:52:10;0.90;99.90
6098;DHT22;3077;50.922;6.584;2023-12-04T07:54:36;1.00;99.90
6098;DHT22;3077;50.922;6.584;2023-12-04T07:57:02;1.00;20.90
6098;DHT22;3077;50.922;6.584;2023-12-04T07:59:29;1.10;15.10
6098;DHT22;3077;50.922;6.584;2023-12-04T08:01:54;1.10;1.00
6098;DHT22;3077;50.922;6.584;2023-12-04T08:04:20;1.10;1.00
6098;DHT22;3077;50.922;6.584;2023-12-04T08:06:45;1.10;1.00
6098;DHT22;3077;50.922;6.584;2023-12-04T08:09:11;1.10;1.00
6098;DHT22;3077;50.922;6.584;2023-12-04T08:11:36;1.10;1.00
6098;DHT22;3077;50.922;6.584;2023-12-04T08:14:03;1.10;1.00
6098;DHT22;3077;50.922;6.584;2023-12-04T08:16:28;1.00;44.50
6098;DHT22;3077;50.922;6.584;2023-12-04T08:18:55;1.00;1.00
6098;DHT22;3077;50.922;6.584;2023-12-04T08:21:21;1.10;63.40
6098;DHT22;3077;50.922;6.584;2023-12-04T08:23:46;1.20;99.90
6098;DHT22;3077;50.922;6.584;2023-12-04T08:26:12;1.20;99.90
6098;DHT22;3077;50.922;6.584;2023-12-04T08:28:37;1.20;5.60
6098;DHT22;3077;50.922;6.584;2023-12-04T08:31:07;1.30;1.00
6098;DHT22;3077;50.922;6.584;2023-12-04T08:33:33;1.40;1.00
6098;DHT22;3077;50.922;6.584;2023-12-04T08:36:00;1.50;1.00
6098;DHT22;3077;50.922;6.584;2023-12-04T08:38:25;1.60;1.00
6098;DHT22;3077;50.922;6.584;2023-12-04T08:40:51;1.60;99.90
6098;DHT22;3077;50.922;6.584;2023-12-04T08:43:17;1.70;99.90
6098;DHT22;3077;50.922;6.584;2023-12-04T08:45:45;1.70;99.90
6098;DHT22;3077;50.922;6.584;2023-12-04T08:48:11;1.70;99.90
6098;DHT22;3077;50.922;6.584;2023-12-04T08:50:36;1.80;99.90
6098;DHT22;3077;50.922;6.584;2023-12-04T08:53:05;1.90;32.70
6098;DHT22;3077;50.922;6.584;2023-12-04T08:55:30;1.90;15.30
6098;DHT22;3077;50.922;6.584;2023-12-04T08:57:56;2.00;99.90
6098;DHT22;3077;50.922;6.584;2023-12-04T09:00:22;1.90;1.00
6098;DHT22;3077;50.922;6.584;2023-12-04T09:02:48;2.00;1.00
6098;DHT22;3077;50.922;6.584;2023-12-04T09:05:14;2.00;1.00
6098;DHT22;3077;50.922;6.584;2023-12-04T09:07:40;2.10;1.00
6098;DHT22;3077;50.922;6.584;2023-12-04T09:10:06;2.20;1.00
6098;DHT22;3077;50.922;6.584;2023-12-04T09:12:31;2.20;1.00
6098;DHT22;3077;50.922;6.584;2023-12-04T09:14:57;2.20;1.00
6098;DHT22;3077;50.922;6.584;2023-12-04T09:17:23;2.20;1.00
6098;DHT22;3077;50.922;6.584;2023-12-04T09:19:48;2.10;1.00
6098;DHT22;3077;50.922;6.584;2023-12-04T09:22:14;2.10;1.00
6098;DHT22;3077;50.922;6.584;2023-12-04T09:24:39;2.10;1.00
6098;DHT22;3077;50.922;6.584;2023-12-04T09:27:05;2.00;1.00
6098;DHT22;3077;50.922;6.584;2023-12-04T09:29:33;2.00;1.00
6098;DHT22;3077;50.922;6.584;2023-12-04T09:31:59;2.00;1.00
6098;DHT22;3077;50.922;6.584;2023-12-04T09:34:24;2.00;1.00
6098;DHT22;3077;50.922;6.584;2023-12-04T09:36:50;2.10;1.00
6098;DHT22;3077;50.922;6.584;2023-12-04T09:39:16;2.30;1.00
6098;DHT22;3077;50.922;6.584;2023-12-04T09:41:42;2.40;1.00
6098;DHT22;3077;50.922;6.584;2023-12-04T09:44:09;2.40;99.90
6098;DHT22;3077;50.922;6.584;2023-12-04T09:46:35;2.40;99.90
6098;DHT22;3077;50.922;6.584;2023-12-04T09:49:02;2.50;99.90
6098;DHT22;3077;50.922;6.584;2023-12-04T09:51:28;2.50;99.90
6098;DHT22;3077;50.922;6.584;2023-12-04T09:53:54;2.60;99.90
6098;DHT22;3077;50.922;6.584;2023-12-04T09:56:23;2.60;99.90
6098;DHT22;3077;50.922;6.584;2023-12-04T09:58:53;2.60;99.90
6098;DHT22;3077;50.922;6.584;2023-12-04T10:01:20;2.70;99.90
6098;DHT22;3077;50.922;6.584;2023-12-04T10:03:47;2.70;99.90
6098;DHT22;3077;50.922;6.584;2023-12-04T10:06:15;2.80;99.90
6098;DHT22;3077;50.922;6.584;2023-12-04T10:08:43;2.70;99.90
6098;DHT22;3077;50.922;6.584;2023-12-04T10:11:10;2.80;99.90
6098;DHT22;3077;50.922;6.584;2023-12-04T10:13:40;2.70;99.90
6098;DHT22;3077;50.922;6.584;2023-12-04T10:16:06;2.70;99.90
6098;DHT22;3077;50.922;6.584;2023-12-04T10:18:32;2.70;99.90
6098;DHT22;3077;50.922;6.584;2023-12-04T10:20:58;2.70;99.90
6098;DHT22;3077;50.922;6.584;2023-12-04T10:23:41;2.70;99.90
6098;DHT22;3077;50.922;6.584;2023-12-04T10:26:08;2.60;99.90
6098;DHT22;3077;50.922;6.584;2023-12-04T10:28:34;2.60;99.90
6098;DHT22;3077;50.922;6.584;2023-12-04T10:31:01;2.60;99.90
6098;DHT22;3077;50.922;6.584;2023-12-04T10:33:29;2.60;99.90
6098;DHT22;3077;50.922;6.584;2023-12-04T10:35:55;2.60;99.90
6098;DHT22;3077;50.922;6.584;2023-12-04T10:38:21;2.70;99.90
6098;DHT22;3077;50.922;6.584;2023-12-04T10:40:47;2.70;99.90
6098;DHT22;3077;50.922;6.584;2023-12-04T10:43:16;2.70;99.90
6098;DHT22;3077;50.922;6.584;2023-12-04T10:45:42;2.70;99.90
6098;DHT22;3077;50.922;6.584;2023-12-04T10:48:10;2.80;99.90
6098;DHT22;3077;50.922;6.584;2023-12-04T10:50:40;2.80;99.90
6098;DHT22;3077;50.922;6.584;2023-12-04T10:53:11;2.70;99.90
6098;DHT22;3077;50.922;6.584;2023-12-04T10:55:37;2.70;99.90
6098;DHT22;3077;50.922;6.584;2023-12-04T10:58:09;2.60;99.90
6098;DHT22;3077;50.922;6.584;2023-12-04T11:00:38;2.50;1.00
6098;DHT22;3077;50.922;6.584;2023-12-04T11:03:07;2.50;1.00
6098;DHT22;3077;50.922;6.584;2023-12-04T11:05:37;2.50;1.00
6098;DHT22;3077;50.922;6.584;2023-12-04T11:08:15;2.40;5.40
6098;DHT22;3077;50.922;6.584;2023-12-04T11:10:57;2.40;99.90
6098;DHT22;3077;50.922;6.584;2023-12-04T11:13:27;2.30;99.90
6098;DHT22;3077;50.922;6.584;2023-12-04T11:16:00;2.30;1.00
6098;DHT22;3077;50.922;6.584;2023-12-04T11:18:28;2.30;1.00
6098;DHT22;3077;50.922;6.584;2023-12-04T11:20:59;2.20;1.00
6098;DHT22;3077;50.922;6.584;2023-12-04T11:23:30;2.20;99.90
6098;DHT22;3077;50.922;6.584;2023-12-04T11:25:57;2.20;99.90
6098;DHT22;3077;50.922;6.584;2023-12-04T11:28:23;2.10;1.00
6098;DHT22;3077;50.922;6.584;2023-12-04T11:30:50;2.10;1.00
6098;DHT22;3077;50.922;6.584;2023-12-04T11:33:16;2.10;99.90
6098;DHT22;3077;50.922;6.584;2023-12-04T11:35:41;2.10;99.90
6098;DHT22;3077;50.922;6.584;2023-12-04T11:38:07;2.00;1.00
6098;DHT22;3077;50.922;6.584;2023-12-04T11:40:35;2.00;64.10
6098;DHT22;3077;50.922;6.584;2023-12-04T11:43:20;2.00;99.90
6098;DHT22;3077;50.922;6.584;2023-12-04T11:45:47;2.00;1.00
6098;DHT22;3077;50.922;6.584;2023-12-04T11:48:14;1.90;1.00
6098;DHT22;3077;50.922;6.584;2023-12-04T11:50:43;1.90;99.90
6098;DHT22;3077;50.922;6.584;2023-12-04T11:53:10;1.90;1.00
6098;DHT22;3077;50.922;6.584;2023-12-04T11:55:40;1.90;70.50
6098;DHT22;3077;50.922;6.584;2023-12-04T11:58:10;1.90;99.90
6098;DHT22;3077;50.922;6.584;2023-12-04T12:00:36;1.90;1.00
6098;DHT22;3077;50.922;6.584;2023-12-04T12:03:06;1.90;1.00
6098;DHT22;3077;50.922;6.584;2023-12-04T12:05:34;1.90;54.30
6098;DHT22;3077;50.922;6.584;2023-12-04T12:08:03;2.80;99.90
6098;DHT22;3077;50.922;6.584;2023-12-04T12:10:29;2.00;1.00
6098;DHT22;3077;50.922;6.584;2023-12-04T12:12:55;2.10;24.30
6098;DHT22;3077;50.922;6.584;2023-12-04T12:15:22;2.20;1.00
6098;DHT22;3077;50.922;6.584;2023-12-04T12:17:49;2.30;99.90
6098;DHT22;3077;50.922;6.584;2023-12-04T12:20:15;2.30;1.00
6098;DHT22;3077;50.922;6.584;2023-12-04T12:22:41;2.40;1.00
6098;DHT22;3077;50.922;6.584;2023-12-04T12:25:10;2.40;99.90
6098;DHT22;3077;50.922;6.584;2023-12-04T12:27:37;2.40;1.00
6098;DHT22;3077;50.922;6.584;2023-12-04T12:30:03;2.50;1.00
6098;DHT22;3077;50.922;6.584;2023-12-04T12:32:31;2.50;99.90
6098;DHT22;3077;50.922;6.584;2023-12-04T12:34:56;2.60;99.90
6098;DHT22;3077;50.922;6.584;2023-12-04T12:37:22;2.60;99.90
6098;DHT22;3077;50.922;6.584;2023-12-04T12:39:48;2.60;1.00
6098;DHT22;3077;50.922;6.584;2023-12-04T12:42:27;2.70;1.00
6098;DHT22;3077;50.922;6.584;2023-12-04T12:44:54;2.70;1.00
6098;DHT22;3077;50.922;6.584;2023-12-04T12:47:21;2.70;20.80
6098;DHT22;3077;50.922;6.584;2023-12-04T12:49:47;2.70;1.00
6098;DHT22;3077;50.922;6.584;2023-12-04T12:52:12;3.30;1.00
6098;DHT22;3077;50.922;6.584;2023-12-04T12:54:42;2.70;1.00
6098;DHT22;3077;50.922;6.584;2023-12-04T12:57:08;2.70;1.00
6098;DHT22;3077;50.922;6.584;2023-12-04T12:59:34;2.60;1.00
6098;DHT22;3077;50.922;6.584;2023-12-04T13:02:00;2.80;1.00
6098;DHT22;3077;50.922;6.584;2023-12-04T13:04:42;2.80;99.90
6098;DHT22;3077;50.922;6.584;2023-12-04T13:07:08;3.00;1.00
6098;DHT22;3077;50.922;6.584;2023-12-04T13:09:35;3.10;1.00
6098;DHT22;3077;50.922;6.584;2023-12-04T13:12:01;3.20;99.90
6098;DHT22;3077;50.922;6.584;2023-12-04T13:14:27;3.20;99.90
6098;DHT22;3077;50.922;6.584;2023-12-04T13:16:52;3.20;1.00
6098;DHT22;3077;50.922;6.584;2023-12-04T13:19:20;3.20;1.00
6098;DHT22;3077;50.922;6.584;2023-12-04T13:21:46;3.10;1.00
6098;DHT22;3077;50.922;6.584;2023-12-04T13:24:12;3.10;99.90
6098;DHT22;3077;50.922;6.584;2023-12-04T13:26:38;3.10;1.00
6098;DHT22;3077;50.922;6.584;2023-12-04T13:29:04;3.00;1.00
6098;DHT22;3077;50.922;6.584;2023-12-04T13:31:29;2.90;1.00
6098;DHT22;3077;50.922;6.584;2023-12-04T13:33:55;2.80;99.90
6098;DHT22;3077;50.922;6.584;2023-12-04T13:36:21;2.80;99.90
6098;DHT22;3077;50.922;6.584;2023-12-04T13:38:46;2.50;1.00
6098;DHT22;3077;50.922;6.584;2023-12-04T13:41:12;2.70;1.00
6098;DHT22;3077;50.922;6.584;2023-12-04T13:44:04;2.60;3.70
6098;DHT22;3077;50.922;6.584;2023-12-04T13:46:30;2.50;99.90
6098;DHT22;3077;50.922;6.584;2023-12-04T13:48:57;2.50;41.20
6098;DHT22;3077;50.922;6.584;2023-12-04T13:51:22;2.50;1.20
6098;DHT22;3077;50.922;6.584;2023-12-04T13:53:48;2.50;99.90
6098;DHT22;3077;50.922;6.584;2023-12-04T13:56:22;2.40;1.00
6098;DHT22;3077;50.922;6.584;2023-12-04T13:59:06;2.40;90.10
6098;DHT22;3077;50.922;6.584;2023-12-04T14:01:33;2.40;99.90
6098;DHT22;3077;50.922;6.584;2023-12-04T14:03:59;2.30;1.00
6098;DHT22;3077;50.922;6.584;2023-12-04T14:06:28;2.40;99.90
6098;DHT22;3077;50.922;6.584;2023-12-04T14:08:55;2.30;99.90
6098;DHT22;3077;50.922;6.584;2023-12-04T14:11:21;2.40;99.90
6098;DHT22;3077;50.922;6.584;2023-12-04T14:13:46;2.40;99.90
6098;DHT22;3077;50.922;6.584;2023-12-04T14:16:12;2.40;99.90
6098;DHT22;3077;50.922;6.584;2023-12-04T14:18:37;2.50;25.00
6098;DHT22;3077;50.922;6.584;2023-12-04T14:21:03;2.50;1.00
6098;DHT22;3077;50.922;6.584;2023-12-04T14:23:29;2.50;1.00
6098;DHT22;3077;50.922;6.584;2023-12-04T14:25:54;2.50;99.90
6098;DHT22;3077;50.922;6.584;2023-12-04T14:28:20;2.40;1.00
6098;DHT22;3077;50.922;6.584;2023-12-04T14:30:46;2.40;1.00
6098;DHT22;3077;50.922;6.584;2023-12-04T14:33:12;2.40;99.90
6098;DHT22;3077;50.922;6.584;2023-12-04T14:35:37;2.40;1.00
6098;DHT22;3077;50.922;6.584;2023-12-04T14:38:04;2.30;1.00
6098;DHT22;3077;50.922;6.584;2023-12-04T14:40:30;2.30;99.90
6098;DHT22;3077;50.922;6.584;2023-12-04T14:42:56;2.30;1.00
6098;DHT22;3077;50.922;6.584;2023-12-04T14:45:22;2.30;1.00
6098;DHT22;3077;50.922;6.584;2023-12-04T14:47:48;2.20;99.90
6098;DHT22;3077;50.922;6.584;2023-12-04T14:50:15;2.30;1.00
6098;DHT22;3077;50.922;6.584;2023-12-04T14:52:41;2.30;1.00
6098;DHT22;3077;50.922;6.584;2023-12-04T14:55:12;2.10;1.00
6098;DHT22;3077;50.922;6.584;2023-12-04T14:58:04;2.10;1.00
6098;DHT22;3077;50.922;6.584;2023-12-04T15:00:56;2.10;99.90
6098;DHT22;3077;50.922;6.584;2023-12-04T15:03:40;2.10;1.00
6098;DHT22;3077;50.922;6.584;2023-12-04T15:06:29;2.10;1.00
6098;DHT22;3077;50.922;6.584;2023-12-04T15:09:13;2.00;82.30
6098;DHT22;3077;50.922;6.584;2023-12-04T15:12:10;2.00;99.90
6098;DHT22;3077;50.922;6.584;2023-12-04T15:14:48;2.00;1.00
6098;DHT22;3077;50.922;6.584;2023-12-04T15:17:23;2.10;1.00
6098;DHT22;3077;50.922;6.584;2023-12-04T15:20:09;2.10;24.20
6098;DHT22;3077;50.922;6.584;2023-12-04T15:22:35;2.10;99.90
6098;DHT22;3077;50.922;6.584;2023-12-04T15:25:05;2.00;99.90
6098;DHT22;3077;50.922;6.584;2023-12-04T15:27:32;2.10;99.90
6098;DHT22;3077;50.922;6.584;2023-12-04T15:29:57;2.10;99.90
6098;DHT22;3077;50.922;6.584;2023-12-04T15:32:23;2.10;99.90
6098;DHT22;3077;50.922;6.584;2023-12-04T15:34:49;2.10;99.90
6098;DHT22;3077;50.922;6.584;2023-12-04T15:37:14;2.10;99.90
6098;DHT22;3077;50.922;6.584;2023-12-04T15:39:40;2.10;1.00
6098;DHT22;3077;50.922;6.584;2023-12-04T15:42:06;2.20;1.00
6098;DHT22;3077;50.922;6.584;2023-12-04T15:44:32;2.20;99.90
6098;DHT22;3077;50.922;6.584;2023-12-04T15:46:58;2.20;99.90
6098;DHT22;3077;50.922;6.584;2023-12-04T15:49:24;2.20;99.90
6098;DHT22;3077;50.922;6.584;2023-12-04T15:51:49;2.20;99.90
6098;DHT22;3077;50.922;6.584;2023-12-04T15:54:15;2.10;1.00
6098;DHT22;3077;50.922;6.584;2023-12-04T15:56:41;2.10;1.00
6098;DHT22;3077;50.922;6.584;2023-12-04T15:59:06;2.10;1.00
6098;DHT22;3077;50.922;6.584;2023-12-04T16:01:32;2.10;1.00
6098;DHT22;3077;50.922;6.584;2023-12-04T16:03:57;2.10;1.00
6098;DHT22;3077;50.922;6.584;2023-12-04T16:06:23;2.30;1.00
6098;DHT22;3077;50.922;6.584;2023-12-04T16:08:48;2.30;1.00
6098;DHT22;3077;50.922;6.584;2023-12-04T16:11:17;2.20;1.00
6098;DHT22;3077;50.922;6.584;2023-12-04T16:13:43;2.30;1.00
6098;DHT22;3077;50.922;6.584;2023-12-04T16:16:09;2.30;1.00
6098;DHT22;3077;50.922;6.584;2023-12-04T16:18:34;2.20;1.00
6098;DHT22;3077;50.922;6.584;2023-12-04T16:21:01;2.10;1.00